Ece S — 3EWK4 — position and weather

sailwx.info

Track history (hours):
 
Tides and Currents Weather Stations Pressure Air Temp Water Temp Dewpoint Dewpoint Depression Visibility Wind Speed Wind Dir Waves Ship Positions

Ece S

Last reported at 2017-Oct-13 09:47 UTC. Time now 2017-Oct-17 10:12 UTC.
Position N 44°52' E 029°48'.

Length 101 m; draft 4.7 m.

Type: Ship. MMSI: 373882000.

Date/timePositionNaut miles runAvg speedWind from/ knotsBaromVisibWave heightAir tempDewpointWater temp
2017-Oct-13 09:47N 44°52' E 029°48'310.7
2017-Oct-13 09:30N 44°49' E 029°48'510.6
2017-Oct-13 09:00N 44°43' E 029°47'510.5
2017-Oct-13 08:31N 44°38' E 029°45'510.2
2017-Oct-13 08:01N 44°33' E 029°44'510.1
2017-Oct-13 07:30N 44°28' E 029°43'510.2
2017-Oct-13 07:00N 44°23' E 029°43'510.6
2017-Oct-13 06:29N 44°18' E 029°42'710.4
2017-Oct-13 05:52N 44°11' E 029°41'410.4
2017-Oct-13 05:30N 44°07' E 029°40'510.6
2017-Oct-13 05:00N 44°02' E 029°39'510.7
2017-Oct-13 04:30N 43°57' E 029°38'510.8
2017-Oct-13 04:01N 43°52' E 029°37'510.5
2017-Oct-13 03:31N 43°46' E 029°37'510.6
2017-Oct-13 03:00N 43°41' E 029°36'510.7
2017-Oct-13 02:30N 43°36' E 029°35'510.4
2017-Oct-13 02:00N 43°30' E 029°34'610.6
2017-Oct-13 01:28N 43°25' E 029°33'510.6
2017-Oct-13 00:59N 43°20' E 029°32'610.6
2017-Oct-13 00:25N 43°14' E 029°31'410.6
2017-Oct-13 00:00N 43°10' E 029°30'510.4
2017-Oct-12 23:30N 43°04' E 029°28'510.4
2017-Oct-12 23:00N 42°59' E 029°27'5 9.9
2017-Oct-12 22:30N 42°54' E 029°27'1 1.0
2017-Oct-12 22:00N 42°54' E 029°27'  
2017-Oct-09 16:08N 40°54' E 028°54'310.8
2017-Oct-09 15:50N 40°52' E 028°50'298 5.8
2017-Oct-07 12:53N 36°04' E 030°24'  
Track history (hours):
 
Tides and Currents Weather Stations Pressure Air Temp Water Temp Dewpoint Dewpoint Depression Visibility Wind Speed Wind Dir Waves Ship Positions

Ece S

Last reported at 2017-Oct-13 09:47 UTC. Time now 2017-Oct-17 10:12 UTC.
Position N 44°52' E 029°48'.

Length 101 m; draft 4.7 m.

Type: Ship. MMSI: 373882000.

Date/timePositionNaut miles runAvg speedWind from/ knotsBaromVisibWave heightAir tempDewpointWater temp
2017-Oct-13 09:47N 44°52' E 029°48'310.7
2017-Oct-13 09:30N 44°49' E 029°48'510.6
2017-Oct-13 09:00N 44°43' E 029°47'510.5
2017-Oct-13 08:31N 44°38' E 029°45'510.2
2017-Oct-13 08:01N 44°33' E 029°44'510.1
2017-Oct-13 07:30N 44°28' E 029°43'510.2
2017-Oct-13 07:00N 44°23' E 029°43'510.6
2017-Oct-13 06:29N 44°18' E 029°42'710.4
2017-Oct-13 05:52N 44°11' E 029°41'410.4
2017-Oct-13 05:30N 44°07' E 029°40'510.6
2017-Oct-13 05:00N 44°02' E 029°39'510.7
2017-Oct-13 04:30N 43°57' E 029°38'510.8
2017-Oct-13 04:01N 43°52' E 029°37'510.5
2017-Oct-13 03:31N 43°46' E 029°37'510.6
2017-Oct-13 03:00N 43°41' E 029°36'510.7
2017-Oct-13 02:30N 43°36' E 029°35'510.4
2017-Oct-13 02:00N 43°30' E 029°34'610.6
2017-Oct-13 01:28N 43°25' E 029°33'510.6
2017-Oct-13 00:59N 43°20' E 029°32'610.6
2017-Oct-13 00:25N 43°14' E 029°31'410.6
2017-Oct-13 00:00N 43°10' E 029°30'510.4
2017-Oct-12 23:30N 43°04' E 029°28'510.4
2017-Oct-12 23:00N 42°59' E 029°27'5 9.9
2017-Oct-12 22:30N 42°54' E 029°27'1 1.0
2017-Oct-12 22:00N 42°54' E 029°27'  
2017-Oct-09 16:08N 40°54' E 028°54'310.8
2017-Oct-09 15:50N 40°52' E 028°50'298 5.8
2017-Oct-07 12:53N 36°04' E 030°24'  

Dump ship's entire track history